Aviation Digital Data Service (ADDS)

Output produced by METARs form (1114 UTC 24 April 2017)
found at http://www.aviationweather.gov/adds/metars/
 
TAF TLPC 241100Z 2412/2512 10010KT 9999 SCT025 
     PROB30 
     TEMPO 2418/2424 SHRA BKN018TCU
       
TAF TLPL 241100Z 2412/2512 10017KT 9999 SCT025 
     PROB30 
     TEMPO 2418/2424 SHRA BKN018TCU